Time;durP1;ratioP1;P1;durP2;ratioP2;P2;SDS_P1;SDS_P2;PMS_P1;PMS_P2;Temp;Humidity;BMP_temperature;BMP_pressure;BME280_temperature;BME280_humidity;BME280_pressure;Samples;Min_cycle;Max_cycle;Signal;HPM_P1;HPM_P2
2020/12/31 00:00:16;;;;;;;10.73;7.28;;;3.00;99.90;;;;;;5093585;28;20482;-68
2020/12/31 00:02:43;;;;;;;12.80;8.45;;;3.00;99.90;;;;;;5081224;28;20044;-70
2020/12/31 00:05:09;;;;;;;11.70;7.60;;;3.00;99.90;;;;;;5109113;28;20063;-68
2020/12/31 00:07:36;;;;;;;11.68;7.72;;;3.00;99.90;;;;;;5080303;28;20047;-68
2020/12/31 00:10:04;;;;;;;12.65;7.95;;;2.90;99.90;;;;;;5092616;28;20063;-67
2020/12/31 00:12:30;;;;;;;14.35;9.40;;;2.90;99.90;;;;;;5093086;28;20495;-68
2020/12/31 00:14:57;;;;;;;14.95;8.35;;;2.90;99.90;;;;;;5093367;28;20051;-69
2020/12/31 00:17:23;;;;;;;11.98;7.95;;;2.80;99.90;;;;;;5092473;28;20047;-68
2020/12/31 00:19:50;;;;;;;13.88;8.82;;;2.80;99.90;;;;;;5080756;28;20512;-70
2020/12/31 00:22:16;;;;;;;12.13;8.60;;;2.70;99.90;;;;;;5093082;28;20043;-69
2020/12/31 00:24:43;;;;;;;13.98;8.75;;;2.80;99.90;;;;;;5081099;28;20508;-68
2020/12/31 00:27:09;;;;;;;12.32;8.45;;;2.70;99.90;;;;;;5074858;28;20056;-68
2020/12/31 00:29:36;;;;;;;12.88;8.38;;;2.70;99.90;;;;;;5090482;28;20044;-68
2020/12/31 00:32:02;;;;;;;13.90;8.63;;;2.70;99.90;;;;;;5083022;28;20050;-69
2020/12/31 00:34:29;;;;;;;12.05;8.23;;;2.70;99.90;;;;;;5092546;28;20086;-68
2020/12/31 00:36:55;;;;;;;13.93;7.75;;;2.70;99.90;;;;;;5080604;28;20080;-68
2020/12/31 00:39:22;;;;;;;11.90;7.50;;;2.70;99.90;;;;;;5092429;28;20060;-68
2020/12/31 00:41:49;;;;;;;13.13;8.43;;;2.70;99.90;;;;;;5080616;28;20078;-70
2020/12/31 00:44:15;;;;;;;13.93;8.10;;;2.70;99.90;;;;;;5091546;28;20052;-69
2020/12/31 00:46:42;;;;;;;11.75;8.48;;;2.70;99.90;;;;;;5092166;28;20056;-68
2020/12/31 00:49:08;;;;;;;10.82;8.05;;;2.70;99.90;;;;;;5092445;28;20055;-68
2020/12/31 00:51:35;;;;;;;12.05;8.20;;;2.70;99.90;;;;;;5092165;28;20058;-67
2020/12/31 00:54:01;;;;;;;12.57;8.80;;;2.60;99.90;;;;;;5092023;28;20075;-69
2020/12/31 00:56:27;;;;;;;11.65;8.73;;;2.70;99.90;;;;;;5092014;28;20050;-68
2020/12/31 00:58:54;;;;;;;13.45;8.95;;;2.60;99.90;;;;;;5108155;28;20040;-68
2020/12/31 01:01:21;;;;;;;11.57;8.02;;;2.60;99.90;;;;;;5073949;28;20048;-68
2020/12/31 01:03:47;;;;;;;12.63;8.98;;;2.60;99.90;;;;;;5092196;28;20054;-68
2020/12/31 01:06:14;;;;;;;13.75;9.38;;;2.60;99.90;;;;;;5068813;28;20040;-69
2020/12/31 01:08:41;;;;;;;16.70;9.10;;;2.50;99.90;;;;;;5084337;28;20044;-68
2020/12/31 01:11:07;;;;;;;11.02;8.25;;;2.50;99.90;;;;;;5072971;28;20127;-69
2020/12/31 01:13:34;;;;;;;12.70;9.10;;;2.50;99.90;;;;;;5092295;28;20409;-68
2020/12/31 01:16:00;;;;;;;12.65;9.00;;;2.50;99.90;;;;;;5091569;28;20044;-68
2020/12/31 01:18:27;;;;;;;13.15;8.75;;;2.50;99.90;;;;;;5066329;28;20376;-69
2020/12/31 01:20:53;;;;;;;13.07;8.90;;;2.50;99.90;;;;;;5087248;28;20054;-69
2020/12/31 01:23:20;;;;;;;13.60;8.52;;;2.40;99.90;;;;;;5101297;28;20049;-67
2020/12/31 01:25:50;;;;;;;14.98;8.68;;;2.50;99.90;;;;;;5085531;28;20067;-67
2020/12/31 01:28:17;;;;;;;13.52;8.88;;;2.40;99.90;;;;;;5090264;28;20052;-67
2020/12/31 01:30:43;;;;;;;13.30;9.30;;;2.40;99.90;;;;;;5091552;28;20453;-68
2020/12/31 01:33:10;;;;;;;12.40;8.65;;;2.40;99.90;;;;;;5090015;28;20383;-67
2020/12/31 01:35:36;;;;;;;12.77;8.88;;;2.40;99.90;;;;;;5091782;28;20127;-67
2020/12/31 01:38:03;;;;;;;13.13;8.45;;;2.40;99.90;;;;;;5090321;28;20044;-67
2020/12/31 01:40:29;;;;;;;12.70;8.57;;;2.40;99.90;;;;;;5091723;28;20058;-67
2020/12/31 01:42:56;;;;;;;12.43;8.38;;;2.40;99.90;;;;;;5089223;28;20048;-67
2020/12/31 01:45:22;;;;;;;12.95;8.85;;;2.40;99.90;;;;;;5090154;28;20052;-67
2020/12/31 01:47:49;;;;;;;13.65;8.73;;;2.40;99.90;;;;;;5089199;28;20453;-68
2020/12/31 01:50:15;;;;;;;12.95;8.73;;;2.40;99.90;;;;;;5090743;28;20040;-67
2020/12/31 01:52:42;;;;;;;13.98;8.98;;;2.40;99.90;;;;;;5086148;28;20401;-68
2020/12/31 01:55:08;;;;;;;13.55;8.70;;;2.40;99.90;;;;;;5085802;28;20502;-67
2020/12/31 01:57:36;;;;;;;11.75;8.32;;;2.40;99.90;;;;;;5065910;28;20036;-67
2020/12/31 02:00:03;;;;;;;11.98;8.70;;;2.50;99.90;;;;;;5089609;28;20051;-69
2020/12/31 02:02:30;;;;;;;11.32;7.88;;;2.50;99.90;;;;;;5088047;28;20405;-67
2020/12/31 02:04:57;;;;;;;10.48;8.25;;;2.50;99.90;;;;;;5089214;28;20052;-66
2020/12/31 02:07:23;;;;;;;12.02;8.30;;;2.50;99.90;;;;;;5090041;28;20398;-67
2020/12/31 02:09:50;;;;;;;10.98;8.05;;;2.50;99.90;;;;;;5089785;28;20043;-66
2020/12/31 02:12:16;;;;;;;13.90;8.27;;;2.50;99.90;;;;;;5089265;28;20494;-67
2020/12/31 02:14:51;;;;;;;12.60;8.95;;;2.50;99.90;;;;;;5089858;28;20039;-66
2020/12/31 02:17:17;;;;;;;11.30;8.48;;;2.60;99.90;;;;;;5085585;28;20571;-67
2020/12/31 02:19:44;;;;;;;11.63;7.80;;;2.60;99.90;;;;;;5089208;28;20509;-68
2020/12/31 02:22:12;;;;;;;12.05;8.77;;;2.60;99.90;;;;;;5088375;28;20051;-68
2020/12/31 02:24:39;;;;;;;12.57;8.40;;;2.60;99.90;;;;;;5089299;28;20490;-68
2020/12/31 02:27:06;;;;;;;12.70;8.27;;;2.60;99.90;;;;;;5088985;28;20093;-68
2020/12/31 02:29:33;;;;;;;13.88;9.10;;;2.60;99.90;;;;;;5090176;28;20047;-68
2020/12/31 02:31:59;;;;;;;14.27;9.48;;;2.50;99.90;;;;;;5084457;28;20502;-67
2020/12/31 02:34:26;;;;;;;12.00;8.65;;;2.50;99.90;;;;;;5089829;28;20420;-67
2020/12/31 02:36:52;;;;;;;13.38;8.95;;;2.50;99.90;;;;;;5070647;28;20040;-67
2020/12/31 02:39:19;;;;;;;13.95;9.40;;;2.50;99.90;;;;;;5089814;28;20074;-68
2020/12/31 02:41:46;;;;;;;13.27;9.35;;;2.50;99.90;;;;;;5087025;28;20059;-68
2020/12/31 02:44:13;;;;;;;14.55;9.77;;;2.50;99.90;;;;;;5077410;28;20075;-67
2020/12/31 02:46:39;;;;;;;12.93;9.95;;;2.50;99.90;;;;;;5088786;28;20044;-67
2020/12/31 02:49:06;;;;;;;14.50;9.95;;;2.40;99.90;;;;;;5085586;28;20071;-67
2020/12/31 02:51:33;;;;;;;13.90;9.75;;;2.50;99.90;;;;;;5090652;28;20054;-67
2020/12/31 02:54:00;;;;;;;13.90;9.60;;;2.50;99.90;;;;;;5089890;28;20067;-68
2020/12/31 02:56:26;;;;;;;13.32;9.20;;;2.40;99.90;;;;;;5094773;28;20051;-67
2020/12/31 02:58:53;;;;;;;12.85;9.32;;;2.40;99.90;;;;;;5091872;28;20044;-67
2020/12/31 03:01:20;;;;;;;14.43;9.80;;;2.40;99.90;;;;;;5093228;28;20078;-66
2020/12/31 03:03:48;;;;;;;13.27;9.15;;;2.50;99.90;;;;;;5092580;28;20143;-67
2020/12/31 03:06:15;;;;;;;15.13;10.30;;;2.40;99.90;;;;;;5093671;28;20462;-67
2020/12/31 03:08:42;;;;;;;12.85;9.45;;;2.40;99.90;;;;;;5092128;28;20052;-67
2020/12/31 03:11:13;;;;;;;12.80;9.50;;;2.40;99.90;;;;;;5081686;28;20051;-68
2020/12/31 03:13:40;;;;;;;15.82;9.63;;;2.40;99.90;;;;;;5093840;28;20040;-67
2020/12/31 03:16:06;;;;;;;14.90;9.57;;;2.40;99.90;;;;;;5093191;28;20044;-67
2020/12/31 03:18:33;;;;;;;17.17;9.93;;;2.40;99.90;;;;;;5094313;28;20489;-67
2020/12/31 03:20:59;;;;;;;15.10;9.50;;;2.40;99.90;;;;;;5094340;28;20482;-67
2020/12/31 03:23:26;;;;;;;13.45;9.73;;;2.40;99.90;;;;;;5092560;28;20048;-67
2020/12/31 03:25:52;;;;;;;16.17;10.10;;;2.40;99.90;;;;;;5091323;28;20070;-68
2020/12/31 03:28:19;;;;;;;16.08;10.07;;;2.40;99.90;;;;;;5092729;28;20052;-68
2020/12/31 03:30:46;;;;;;;14.38;10.00;;;2.30;99.90;;;;;;5082788;28;20063;-68
2020/12/31 03:33:13;;;;;;;13.93;9.93;;;2.30;99.90;;;;;;5075328;28;20044;-67
2020/12/31 03:35:45;;;;;;;11.75;8.88;;;2.20;99.90;;;;;;5108085;28;20405;-68
2020/12/31 03:38:13;;;;;;;13.65;9.55;;;2.20;99.90;;;;;;5090695;28;20081;-68
2020/12/31 03:40:40;;;;;;;15.18;10.50;;;2.10;99.90;;;;;;5093047;28;20389;-66
2020/12/31 03:43:08;;;;;;;16.65;10.40;;;2.10;99.90;;;;;;5091231;28;20052;-67
2020/12/31 03:45:36;;;;;;;13.05;9.38;;;2.10;99.90;;;;;;5093783;28;20547;-68
2020/12/31 03:48:04;;;;;;;15.43;10.45;;;2.10;99.90;;;;;;5093582;28;20363;-67
2020/12/31 03:50:31;;;;;;;15.48;9.93;;;2.00;99.90;;;;;;5081818;28;20051;-67
2020/12/31 03:52:57;;;;;;;14.50;10.20;;;2.00;99.90;;;;;;5091674;28;20051;-68
2020/12/31 03:55:24;;;;;;;15.55;10.73;;;2.00;99.90;;;;;;5091954;28;20051;-67
2020/12/31 03:57:50;;;;;;;14.18;10.32;;;2.00;99.90;;;;;;5092699;28;20135;-67
2020/12/31 04:00:17;;;;;;;15.30;10.80;;;1.90;99.90;;;;;;5074661;28;20062;-67
2020/12/31 04:02:43;;;;;;;15.98;10.75;;;1.80;99.90;;;;;;5092538;28;20044;-67
2020/12/31 04:05:10;;;;;;;18.38;11.35;;;1.80;99.90;;;;;;5092211;28;20130;-67
2020/12/31 04:07:36;;;;;;;16.50;11.35;;;1.70;99.90;;;;;;5075080;28;20122;-66
2020/12/31 04:10:04;;;;;;;16.42;11.10;;;1.70;99.90;;;;;;5091927;28;20076;-67
2020/12/31 04:12:31;;;;;;;17.10;11.63;;;1.70;99.90;;;;;;5091103;28;20062;-67
2020/12/31 04:14:57;;;;;;;15.70;10.73;;;1.70;99.90;;;;;;5092034;28;20056;-66
2020/12/31 04:17:23;;;;;;;16.88;11.35;;;1.60;99.90;;;;;;5091550;28;20048;-66
2020/12/31 04:19:50;;;;;;;15.63;10.40;;;1.60;99.90;;;;;;5080098;28;20051;-68
2020/12/31 04:22:17;;;;;;;17.73;11.38;;;1.50;99.90;;;;;;5061394;28;20056;-68
2020/12/31 04:24:44;;;;;;;18.83;11.68;;;1.50;99.90;;;;;;5082793;28;20082;-67
2020/12/31 04:27:10;;;;;;;17.38;10.80;;;1.40;99.90;;;;;;5085969;28;20074;-66
2020/12/31 04:29:37;;;;;;;17.40;10.85;;;1.30;99.90;;;;;;5090113;28;20054;-68
2020/12/31 04:32:05;;;;;;;17.33;11.13;;;1.20;99.90;;;;;;5082016;28;20052;-67
2020/12/31 04:34:31;;;;;;;17.80;10.98;;;1.10;99.90;;;;;;5092285;28;20056;-67
2020/12/31 04:36:57;;;;;;;16.73;11.60;;;1.00;99.90;;;;;;5090363;28;20054;-67
2020/12/31 04:39:24;;;;;;;22.40;12.77;;;0.90;99.90;;;;;;5092610;28;20044;-67
2020/12/31 04:41:57;;;;;;;18.60;12.95;;;0.90;99.90;;;;;;5091628;28;20060;-66
2020/12/31 04:44:24;;;;;;;17.48;11.02;;;0.90;99.90;;;;;;5092988;28;20075;-67
2020/12/31 04:46:54;;;;;;;17.52;11.82;;;0.80;99.90;;;;;;5091056;28;20549;-67
2020/12/31 04:49:33;;;;;;;19.23;12.18;;;0.70;99.90;;;;;;5091221;28;20055;-67
2020/12/31 04:52:01;;;;;;;20.27;13.40;;;0.80;99.90;;;;;;5091572;28;20434;-67
2020/12/31 04:54:29;;;;;;;20.67;12.23;;;0.80;99.90;;;;;;5092628;28;20050;-67
2020/12/31 04:56:55;;;;;;;19.70;13.75;;;0.80;99.90;;;;;;5092676;28;20043;-68
2020/12/31 04:59:22;;;;;;;19.40;12.40;;;0.80;99.90;;;;;;5082214;28;20036;-67
2020/12/31 05:01:48;;;;;;;18.88;12.40;;;0.80;99.90;;;;;;5090575;28;20502;-68
2020/12/31 05:04:15;;;;;;;20.13;11.88;;;0.80;99.90;;;;;;5090833;28;20055;-67
2020/12/31 05:06:44;;;;;;;18.80;12.50;;;0.70;99.90;;;;;;5092251;28;20052;-67
2020/12/31 05:09:18;;;;;;;20.40;13.07;;;0.70;99.90;;;;;;5089728;28;20059;-67
2020/12/31 05:11:49;;;;;;;18.63;11.93;;;0.70;99.90;;;;;;5091501;28;20052;-68
2020/12/31 05:14:30;;;;;;;24.23;13.55;;;0.80;99.90;;;;;;5091613;28;20040;-67
2020/12/31 05:17:14;;;;;;;22.20;12.52;;;0.80;99.90;;;;;;5088834;28;20052;-67
2020/12/31 05:19:41;;;;;;;20.90;12.63;;;0.90;99.90;;;;;;5091121;28;20044;-68
2020/12/31 05:22:16;;;;;;;18.83;12.45;;;1.00;99.90;;;;;;5089942;28;20047;-68
2020/12/31 05:24:47;;;;;;;20.73;13.50;;;1.10;99.90;;;;;;5092148;28;20083;-68
2020/12/31 05:27:25;;;;;;;17.15;11.80;;;1.20;99.90;;;;;;5089550;28;20051;-68
2020/12/31 05:30:04;;;;;;;19.67;12.68;;;1.30;99.90;;;;;;5089951;28;20040;-68
2020/12/31 05:32:33;;;;;;;18.50;13.15;;;1.40;99.90;;;;;;5071053;28;20131;-68
2020/12/31 05:35:00;;;;;;;18.63;12.82;;;1.50;99.90;;;;;;5091321;28;20127;-68
2020/12/31 05:37:28;;;;;;;17.40;11.65;;;1.50;99.90;;;;;;5090067;28;20040;-69
2020/12/31 05:40:03;;;;;;;18.23;11.63;;;1.60;99.90;;;;;;5091045;28;20410;-68
2020/12/31 05:42:31;;;;;;;17.40;11.70;;;1.60;99.90;;;;;;5088570;28;20051;-68
2020/12/31 05:45:01;;;;;;;17.85;12.13;;;1.60;99.90;;;;;;5089838;28;20093;-68
2020/12/31 05:47:28;;;;;;;18.60;11.52;;;1.70;99.90;;;;;;5090483;28;20047;-68
2020/12/31 05:49:54;;;;;;;19.95;11.98;;;1.70;99.90;;;;;;5091470;28;20055;-68
2020/12/31 05:52:37;;;;;;;19.25;12.45;;;1.80;99.90;;;;;;5086612;28;20044;-67
2020/12/31 05:55:06;;;;;;;19.65;12.50;;;1.80;99.90;;;;;;5090376;28;20048;-67
2020/12/31 05:57:35;;;;;;;19.50;12.10;;;1.80;99.90;;;;;;5089616;28;20040;-68
2020/12/31 06:00:07;;;;;;;17.77;11.52;;;1.80;99.90;;;;;;5086281;28;20448;-69
2020/12/31 06:02:42;;;;;;;16.95;11.93;;;1.80;99.90;;;;;;5077810;28;20440;-68
2020/12/31 06:05:14;;;;;;;19.10;12.90;;;1.80;99.90;;;;;;5091134;28;20482;-68
2020/12/31 06:07:51;;;;;;;21.05;12.98;;;1.90;99.90;;;;;;5105923;28;20063;-67
2020/12/31 06:10:30;;;;;;;19.20;12.73;;;1.90;99.90;;;;;;5088890;28;20052;-68
2020/12/31 06:13:05;;;;;;;19.27;13.02;;;1.90;99.90;;;;;;5075081;28;20043;-68
2020/12/31 06:15:37;;;;;;;19.90;12.43;;;2.00;99.90;;;;;;5090952;28;20489;-67
2020/12/31 06:18:05;;;;;;;19.10;12.85;;;1.90;99.90;;;;;;5088861;28;20055;-67
2020/12/31 06:20:33;;;;;;;18.65;12.40;;;1.90;99.90;;;;;;5090611;28;20059;-68
2020/12/31 06:23:13;;;;;;;19.15;12.68;;;1.90;99.90;;;;;;5069725;28;21677;-68
2020/12/31 06:25:45;;;;;;;18.52;12.80;;;1.90;99.90;;;;;;5084111;28;20490;-67
2020/12/31 06:28:16;;;;;;;;;;;1.90;99.90;;;;;;5079159;28;20048;-67
2020/12/31 06:30:45;;;;;;;20.17;12.52;;;2.00;99.90;;;;;;5080068;28;19924;-68
2020/12/31 06:33:20;;;;;;;22.55;13.75;;;2.00;99.90;;;;;;5065953;28;20141;-67
2020/12/31 06:35:51;;;;;;;20.70;12.95;;;1.90;99.90;;;;;;5079294;28;20044;-67
2020/12/31 06:38:36;;;;;;;21.00;13.77;;;2.00;99.90;;;;;;5076971;28;20037;-68
2020/12/31 06:41:05;;;;;;;21.70;13.52;;;2.00;99.90;;;;;;5073420;28;20044;-68
2020/12/31 06:43:37;;;;;;;20.88;13.32;;;2.00;99.90;;;;;;5074876;28;20192;-68
2020/12/31 06:46:16;;;;;;;22.92;13.80;;;2.00;99.90;;;;;;5080466;28;20144;-68
2020/12/31 06:48:43;;;;;;;21.40;13.85;;;1.90;99.90;;;;;;5069536;28;20040;-67
2020/12/31 06:51:12;;;;;;;19.60;13.55;;;1.90;99.90;;;;;;5080480;28;20060;-67
2020/12/31 06:53:46;;;;;;;20.50;13.25;;;1.90;99.90;;;;;;5090260;28;20105;-68
2020/12/31 06:56:41;;;;;;;26.23;14.23;;;1.90;99.90;;;;;;5088727;28;20051;-68
2020/12/31 06:59:28;;;;;;;19.42;13.10;;;1.90;99.90;;;;;;5085519;28;20055;-68
2020/12/31 07:01:55;;;;;;;20.50;13.50;;;1.90;99.90;;;;;;5088744;28;20346;-69
2020/12/31 07:04:33;;;;;;;21.50;13.90;;;1.90;99.90;;;;;;5071645;28;20056;-67
2020/12/31 07:07:01;;;;;;;23.88;13.75;;;1.90;99.90;;;;;;5074423;28;20056;-68
2020/12/31 07:09:29;;;;;;;24.15;14.13;;;1.90;99.90;;;;;;5087372;28;20409;-68
2020/12/31 07:11:58;;;;;;;24.95;15.23;;;1.90;99.90;;;;;;5088820;28;20048;-67
2020/12/31 07:14:27;;;;;;;23.67;14.40;;;1.90;99.90;;;;;;5085697;28;20044;-68
2020/12/31 07:16:58;;;;;;;21.58;13.65;;;1.90;99.90;;;;;;5088751;28;20053;-69
2020/12/31 07:19:43;;;;;;;23.63;15.23;;;1.90;99.90;;;;;;5088932;28;20040;-68
2020/12/31 07:22:17;;;;;;;20.85;13.95;;;1.80;99.90;;;;;;5080509;28;20048;-69
2020/12/31 07:24:49;;;;;;;37.38;20.55;;;1.90;99.90;;;;;;5087931;28;20044;-68
2020/12/31 07:27:27;;;;;;;34.58;21.23;;;1.80;99.90;;;;;;5078652;28;20048;-68
2020/12/31 07:30:08;;;;;;;33.65;19.98;;;1.80;99.90;;;;;;5062591;28;20142;-69
2020/12/31 07:32:57;;;;;;;27.15;17.80;;;1.80;99.90;;;;;;5077028;28;20063;-69
2020/12/31 07:35:23;;;;;;;28.98;18.60;;;1.70;99.90;;;;;;5077025;28;20040;-68
2020/12/31 07:37:59;;;;;;;22.58;14.88;;;1.70;99.90;;;;;;5086556;28;20048;-68
2020/12/31 07:40:30;;;;;;;22.67;14.73;;;1.70;99.90;;;;;;5077572;28;20051;-68
2020/12/31 07:42:58;;;;;;;24.63;15.55;;;1.60;99.90;;;;;;5071407;28;20056;-68
2020/12/31 07:45:26;;;;;;;24.30;14.32;;;1.60;99.90;;;;;;5079966;28;20532;-68
2020/12/31 07:47:54;;;;;;;22.13;14.07;;;1.50;99.90;;;;;;5090073;28;20056;-68
2020/12/31 07:50:22;;;;;;;25.30;14.98;;;1.50;99.90;;;;;;5073101;28;20058;-70
2020/12/31 07:52:50;;;;;;;22.08;14.63;;;1.50;99.90;;;;;;5084144;28;20555;-69
2020/12/31 07:55:18;;;;;;;21.38;13.77;;;1.50;99.90;;;;;;5086877;28;20051;-68
2020/12/31 07:57:44;;;;;;;22.83;14.35;;;1.50;99.90;;;;;;5090452;28;20519;-70
2020/12/31 08:00:17;;;;;;;24.60;14.30;;;1.50;99.90;;;;;;5091051;28;20043;-69
2020/12/31 08:02:52;;;;;;;23.50;14.05;;;1.50;99.90;;;;;;5089892;28;20040;-68
2020/12/31 08:05:23;;;;;;;23.17;14.40;;;1.50;99.90;;;;;;5073988;28;20135;-71
2020/12/31 08:07:55;;;;;;;35.92;20.58;;;1.40;99.90;;;;;;5105481;28;20548;-68
2020/12/31 08:10:31;;;;;;;29.85;17.05;;;1.50;99.90;;;;;;5084812;28;20072;-70
2020/12/31 08:13:00;;;;;;;25.15;14.10;;;1.50;99.90;;;;;;5088006;28;20052;-69
2020/12/31 08:15:27;;;;;;;20.02;13.05;;;1.50;99.90;;;;;;5090314;28;20051;-70
2020/12/31 08:17:56;;;;;;;24.92;14.10;;;1.50;99.90;;;;;;5090582;28;20055;-70
2020/12/31 08:20:28;;;;;;;20.73;12.95;;;1.50;99.90;;;;;;5091603;28;20466;-70
2020/12/31 08:22:57;;;;;;;21.27;14.02;;;1.50;99.90;;;;;;5085274;28;20156;-70
2020/12/31 08:25:36;;;;;;;19.60;12.20;;;1.60;99.90;;;;;;5091184;28;20055;-68
2020/12/31 08:28:05;;;;;;;20.40;12.82;;;1.60;99.90;;;;;;5088603;28;20056;-69
2020/12/31 08:30:34;;;;;;;24.20;14.77;;;1.70;99.90;;;;;;5091470;28;20051;-69
2020/12/31 08:33:02;;;;;;;20.20;12.52;;;1.70;99.90;;;;;;5090183;28;20137;-70
2020/12/31 08:35:37;;;;;;;22.30;12.98;;;1.70;99.90;;;;;;5090827;28;20055;-70
2020/12/31 08:38:11;;;;;;;18.33;11.88;;;1.80;99.90;;;;;;5077698;28;20040;-69
2020/12/31 08:40:48;;;;;;;20.23;12.35;;;1.80;99.90;;;;;;5081177;28;20043;-69
2020/12/31 08:43:22;;;;;;;18.50;11.15;;;1.80;99.90;;;;;;5072121;28;20048;-70
2020/12/31 08:45:50;;;;;;;19.73;12.07;;;1.80;99.90;;;;;;5090984;28;20040;-69
2020/12/31 08:48:29;;;;;;;19.42;12.25;;;1.70;99.90;;;;;;5088597;28;20427;-69
2020/12/31 08:51:09;;;;;;;23.92;14.70;;;1.80;99.90;;;;;;5084870;28;20044;-69
2020/12/31 08:53:58;;;;;;;22.42;13.55;;;1.80;99.90;;;;;;5090342;28;20048;-69
2020/12/31 08:56:27;;;;;;;21.10;12.65;;;1.90;99.90;;;;;;5090011;28;20413;-70
2020/12/31 08:59:06;;;;;;;18.85;12.20;;;1.90;99.90;;;;;;5091337;28;20052;-70
2020/12/31 09:01:33;;;;;;;18.02;11.43;;;1.90;99.90;;;;;;5088901;28;20048;-70
2020/12/31 09:04:18;;;;;;;19.05;11.15;;;1.90;99.90;;;;;;5091399;28;20093;-70
2020/12/31 09:06:51;;;;;;;20.13;12.20;;;2.00;99.90;;;;;;5089567;28;20395;-70
2020/12/31 09:09:18;;;;;;;18.60;12.20;;;2.10;99.90;;;;;;5087873;28;20509;-68
2020/12/31 09:11:55;;;;;;;20.63;12.23;;;2.20;99.90;;;;;;5082378;28;20079;-69
2020/12/31 09:14:22;;;;;;;17.77;11.23;;;2.30;99.90;;;;;;5090035;28;20066;-70
2020/12/31 09:16:48;;;;;;;19.73;12.18;;;2.40;99.90;;;;;;5090866;28;20050;-71
2020/12/31 09:19:16;;;;;;;17.08;10.80;;;2.40;99.90;;;;;;5084173;28;20045;-70
2020/12/31 09:21:43;;;;;;;16.60;11.32;;;2.50;99.90;;;;;;5090741;28;20052;-70
2020/12/31 09:24:17;;;;;;;16.48;10.38;;;2.60;99.90;;;;;;5088214;28;20047;-70
2020/12/31 09:26:58;;;;;;;19.05;10.32;;;2.70;99.90;;;;;;5072978;28;20417;-70
2020/12/31 09:29:29;;;;;;;16.42;9.90;;;2.80;99.90;;;;;;5087219;28;20050;-70
2020/12/31 09:31:56;;;;;;;13.30;9.82;;;2.80;99.90;;;;;;5088467;28;20094;-70
2020/12/31 09:34:22;;;;;;;15.15;10.45;;;2.90;99.90;;;;;;5087667;28;20405;-69
2020/12/31 09:36:49;;;;;;;14.98;9.55;;;3.00;99.90;;;;;;5089986;28;20561;-69
2020/12/31 09:39:16;;;;;;;27.58;15.75;;;3.10;99.90;;;;;;5087675;28;20051;-69
2020/12/31 09:41:47;;;;;;;16.83;10.25;;;3.20;99.90;;;;;;5088366;28;20486;-69
2020/12/31 09:44:13;;;;;;;13.85;9.48;;;3.30;99.90;;;;;;5085643;28;20103;-69
2020/12/31 09:46:39;;;;;;;14.85;9.95;;;3.40;99.90;;;;;;5071442;28;20483;-69
2020/12/31 09:49:06;;;;;;;14.82;9.40;;;3.30;99.90;;;;;;5104030;28;20047;-68
2020/12/31 09:51:32;;;;;;;14.13;8.65;;;3.40;99.90;;;;;;5087102;28;20048;-69
2020/12/31 09:53:59;;;;;;;13.32;8.45;;;3.50;99.90;;;;;;5087995;28;20295;-70
2020/12/31 09:56:30;;;;;;;14.05;8.68;;;3.60;99.90;;;;;;5089597;28;20051;-71
2020/12/31 09:58:57;;;;;;;14.07;8.07;;;3.60;99.90;;;;;;5087952;28;20044;-70
2020/12/31 10:01:27;;;;;;;11.43;8.90;;;3.60;99.90;;;;;;5088094;28;20501;-70
2020/12/31 10:03:54;;;;;;;13.20;8.57;;;3.60;99.90;;;;;;5086406;28;20048;-69
2020/12/31 10:06:20;;;;;;;12.10;8.48;;;3.60;99.90;;;;;;5088640;28;20471;-71
2020/12/31 10:08:50;;;;;;;14.13;8.40;;;3.70;99.90;;;;;;5088145;28;20084;-70
2020/12/31 10:11:18;;;;;;;13.77;9.05;;;3.80;99.90;;;;;;5082610;28;20055;-70
2020/12/31 10:13:44;;;;;;;12.90;8.50;;;3.90;99.90;;;;;;5081436;28;20379;-71
2020/12/31 10:16:11;;;;;;;13.07;8.25;;;4.10;99.90;;;;;;5088237;28;20470;-69
2020/12/31 10:18:37;;;;;;;11.90;8.25;;;4.20;99.90;;;;;;5087535;28;20055;-70
2020/12/31 10:21:05;;;;;;;12.95;8.25;;;4.40;99.90;;;;;;5103532;28;20040;-71
2020/12/31 10:23:32;;;;;;;11.30;7.30;;;4.60;99.90;;;;;;5088600;28;20048;-71
2020/12/31 10:25:58;;;;;;;13.70;8.48;;;4.70;99.90;;;;;;5088856;28;20048;-70
2020/12/31 10:28:24;;;;;;;12.25;8.85;;;4.80;99.90;;;;;;5089791;28;20412;-71
2020/12/31 10:30:51;;;;;;;13.50;8.45;;;4.90;99.90;;;;;;5088710;28;20498;-71
2020/12/31 10:33:17;;;;;;;12.80;8.13;;;5.20;99.90;;;;;;5087560;28;20036;-69
2020/12/31 10:35:44;;;;;;;13.38;8.20;;;5.30;99.90;;;;;;5103195;28;20059;-69
2020/12/31 10:38:11;;;;;;;11.60;8.13;;;5.40;99.90;;;;;;5088880;28;20055;-70
2020/12/31 10:40:37;;;;;;;13.15;8.95;;;5.50;99.90;;;;;;5088881;28;20056;-70
2020/12/31 10:43:04;;;;;;;10.75;7.50;;;5.80;99.90;;;;;;5087218;28;20051;-70
2020/12/31 10:45:30;;;;;;;12.05;7.05;;;6.70;99.90;;;;;;5087983;28;20125;-69
2020/12/31 10:47:57;;;;;;;10.15;7.68;;;8.20;99.90;;;;;;5085404;28;20434;-70
2020/12/31 10:50:23;;;;;;;9.73;6.95;;;9.20;99.90;;;;;;5086486;28;20036;-69
2020/12/31 10:52:50;;;;;;;11.77;7.40;;;9.20;99.90;;;;;;5085470;28;20041;-70
2020/12/31 10:55:17;;;;;;;9.20;7.45;;;9.40;99.90;;;;;;5085061;28;20497;-70
2020/12/31 10:57:43;;;;;;;7.78;6.95;;;9.70;99.90;;;;;;5088753;28;20040;-69
2020/12/31 11:00:10;;;;;;;10.52;7.57;;;9.80;99.90;;;;;;5089143;28;20050;-70
2020/12/31 11:02:36;;;;;;;7.55;6.72;;;9.80;99.90;;;;;;5076415;28;20399;-70
2020/12/31 11:05:05;;;;;;;8.45;7.30;;;10.60;99.90;;;;;;5061211;28;20044;-70
2020/12/31 11:07:32;;;;;;;10.77;7.40;;;10.90;99.90;;;;;;5082972;28;20450;-70
2020/12/31 11:09:59;;;;;;;7.93;7.13;;;11.00;99.90;;;;;;5088846;28;20499;-69
2020/12/31 11:12:26;;;;;;;7.82;6.97;;;11.50;99.90;;;;;;5087892;28;20358;-70
2020/12/31 11:14:52;;;;;;;9.80;7.78;;;11.80;99.90;;;;;;5088948;28;20532;-70
2020/12/31 11:17:19;;;;;;;9.20;8.00;;;11.50;99.90;;;;;;5070706;28;20055;-70
2020/12/31 11:19:45;;;;;;;9.85;8.45;;;10.90;99.90;;;;;;5092326;28;20127;-70
2020/12/31 11:22:11;;;;;;;9.70;7.70;;;10.40;99.90;;;;;;5092333;28;20050;-69
2020/12/31 11:24:38;;;;;;;9.75;7.68;;;11.00;99.90;;;;;;5074721;28;20040;-70
2020/12/31 11:27:06;;;;;;;21.95;15.43;;;11.10;99.90;;;;;;5092276;28;20044;-70
2020/12/31 11:29:32;;;;;;;10.25;9.15;;;11.60;99.90;;;;;;5094361;28;20048;-70
2020/12/31 11:32:03;;;;;;;8.88;8.00;;;12.10;99.90;;;;;;5094214;28;20066;-70
2020/12/31 11:34:29;;;;;;;10.52;8.85;;;11.70;99.90;;;;;;5093301;28;20048;-69
2020/12/31 11:36:56;;;;;;;9.40;8.50;;;11.50;99.90;;;;;;5080400;28;20051;-70
2020/12/31 11:39:23;;;;;;;9.02;8.23;;;11.00;99.90;;;;;;5093366;28;20071;-69
2020/12/31 11:41:54;;;;;;;8.93;8.10;;;10.40;99.90;;;;;;5090401;28;20130;-69
2020/12/31 11:44:21;;;;;;;;;;;9.70;99.90;;;;;;5091832;28;20048;-70
2020/12/31 12:02:11;;;;;;;17.15;12.70;;;10.60;99.90;;;;;;5075270;28;20054;-69
2020/12/31 12:04:38;;;;;;;10.50;9.38;;;11.10;99.90;;;;;;5071902;28;20045;-69
2020/12/31 12:07:04;;;;;;;8.27;7.57;;;11.60;99.90;;;;;;5073004;28;20049;-69
2020/12/31 12:09:30;;;;;;;9.00;7.78;;;11.20;99.90;;;;;;5070439;28;20482;-70
2020/12/31 12:11:57;;;;;;;7.82;7.03;;;11.60;99.90;;;;;;5072610;28;20071;-70
2020/12/31 12:14:23;;;;;;;8.50;7.57;;;12.90;99.90;;;;;;5071694;28;20036;-71
2020/12/31 12:16:50;;;;;;;8.43;7.63;;;13.60;99.70;;;;;;5070657;28;20055;-69
2020/12/31 12:19:17;;;;;;;8.73;7.93;;;13.90;97.90;;;;;;5070758;28;20384;-69
2020/12/31 12:21:45;;;;;;;9.00;8.02;;;14.20;96.70;;;;;;5071164;28;20181;-71
2020/12/31 12:24:11;;;;;;;8.32;7.63;;;14.20;95.80;;;;;;5071711;28;20357;-71
2020/12/31 12:26:39;;;;;;;8.93;8.13;;;13.90;95.90;;;;;;5070755;28;20098;-70
2020/12/31 12:29:07;;;;;;;8.65;7.85;;;13.90;96.40;;;;;;5045777;28;20487;-69
2020/12/31 12:31:37;;;;;;;8.75;8.05;;;13.60;95.20;;;;;;5050796;28;20043;-69
2020/12/31 12:34:05;;;;;;;8.23;7.63;;;12.70;95.70;;;;;;5033906;28;20053;-69
2020/12/31 12:36:32;;;;;;;8.18;7.38;;;11.90;96.70;;;;;;5050341;28;20521;-70
2020/12/31 12:38:59;;;;;;;8.93;8.13;;;11.10;97.60;;;;;;5067776;28;20502;-69
2020/12/31 12:41:25;;;;;;;8.77;7.88;;;10.60;99.00;;;;;;5048383;28;20057;-69
2020/12/31 12:43:52;;;;;;;8.90;8.10;;;10.60;99.70;;;;;;5036931;28;20057;-69
2020/12/31 12:46:19;;;;;;;8.25;7.47;;;11.10;99.10;;;;;;5051344;28;20048;-70
2020/12/31 12:48:46;;;;;;;8.30;7.22;;;11.60;98.20;;;;;;5051149;28;20116;-68
2020/12/31 12:51:13;;;;;;;9.57;8.63;;;12.40;97.80;;;;;;5050484;28;20063;-70
2020/12/31 12:53:40;;;;;;;8.73;7.93;;;12.90;96.90;;;;;;5049592;28;20513;-70
2020/12/31 12:56:09;;;;;;;9.57;8.60;;;13.70;95.50;;;;;;5050654;28;20087;-70
2020/12/31 12:58:36;;;;;;;8.60;7.70;;;13.40;95.00;;;;;;5050703;28;20041;-70
2020/12/31 13:01:02;;;;;;;8.60;7.78;;;13.20;95.10;;;;;;5050843;28;20056;-70
2020/12/31 13:03:29;;;;;;;9.20;7.80;;;13.20;95.20;;;;;;5050016;28;20079;-68
2020/12/31 13:05:56;;;;;;;8.27;7.53;;;13.90;94.30;;;;;;5028806;28;20418;-69